sensor_id;sensor_type;location;lat;lon;timestamp;temperature;humidity
20560;DHT22;10438;51.454;6.718;2022-09-09T00:00:47;15.30;99.90
20560;DHT22;10438;51.454;6.718;2022-09-09T00:03:18;15.30;99.90
20560;DHT22;10438;51.454;6.718;2022-09-09T00:05:56;15.30;99.90
20560;DHT22;10438;51.454;6.718;2022-09-09T00:08:54;15.30;99.90
20560;DHT22;10438;51.454;6.718;2022-09-09T00:11:43;15.30;99.90
20560;DHT22;10438;51.454;6.718;2022-09-09T00:14:47;15.30;99.90
20560;DHT22;10438;51.454;6.718;2022-09-09T00:17:09;15.30;99.90
20560;DHT22;10438;51.454;6.718;2022-09-09T00:22:17;15.30;99.90
20560;DHT22;10438;51.454;6.718;2022-09-09T00:24:54;15.30;99.90
20560;DHT22;10438;51.454;6.718;2022-09-09T00:27:48;15.20;99.90
20560;DHT22;10438;51.454;6.718;2022-09-09T00:30:17;15.30;99.90
20560;DHT22;10438;51.454;6.718;2022-09-09T00:32:46;15.30;99.90
20560;DHT22;10438;51.454;6.718;2022-09-09T00:35:25;15.30;99.90
20560;DHT22;10438;51.454;6.718;2022-09-09T00:37:54;15.30;99.90
20560;DHT22;10438;51.454;6.718;2022-09-09T00:40:34;15.30;99.90
20560;DHT22;10438;51.454;6.718;2022-09-09T00:43:26;15.30;99.90
20560;DHT22;10438;51.454;6.718;2022-09-09T00:48:57;15.30;99.90
20560;DHT22;10438;51.454;6.718;2022-09-09T00:57:30;15.30;99.90
20560;DHT22;10438;51.454;6.718;2022-09-09T01:00:20;15.30;99.90
20560;DHT22;10438;51.454;6.718;2022-09-09T01:03:11;15.40;99.90
20560;DHT22;10438;51.454;6.718;2022-09-09T01:08:53;15.40;99.90
20560;DHT22;10438;51.454;6.718;2022-09-09T01:11:43;15.40;99.90
20560;DHT22;10438;51.454;6.718;2022-09-09T01:17:19;15.30;99.90
20560;DHT22;10438;51.454;6.718;2022-09-09T01:25:20;15.30;99.90
20560;DHT22;10438;51.454;6.718;2022-09-09T01:27:49;15.30;99.90
20560;DHT22;10438;51.454;6.718;2022-09-09T01:30:18;15.30;99.90
20560;DHT22;10438;51.454;6.718;2022-09-09T01:32:46;15.30;99.90
20560;DHT22;10438;51.454;6.718;2022-09-09T01:35:30;15.30;99.90
20560;DHT22;10438;51.454;6.718;2022-09-09T01:37:58;15.30;99.90
20560;DHT22;10438;51.454;6.718;2022-09-09T01:40:25;15.30;99.90
20560;DHT22;10438;51.454;6.718;2022-09-09T01:42:51;15.30;99.90
20560;DHT22;10438;51.454;6.718;2022-09-09T01:45:17;15.30;99.90
20560;DHT22;10438;51.454;6.718;2022-09-09T01:47:44;15.30;99.90
20560;DHT22;10438;51.454;6.718;2022-09-09T01:50:14;15.30;99.90
20560;DHT22;10438;51.454;6.718;2022-09-09T01:52:40;15.30;99.90
20560;DHT22;10438;51.454;6.718;2022-09-09T01:55:06;15.40;99.90
20560;DHT22;10438;51.454;6.718;2022-09-09T02:00:33;15.40;99.90
20560;DHT22;10438;51.454;6.718;2022-09-09T02:03:23;15.50;99.90
20560;DHT22;10438;51.454;6.718;2022-09-09T02:08:43;15.50;99.90
20560;DHT22;10438;51.454;6.718;2022-09-09T02:11:15;15.40;99.90
20560;DHT22;10438;51.454;6.718;2022-09-09T02:13:44;15.40;99.90
20560;DHT22;10438;51.454;6.718;2022-09-09T02:16:24;15.50;99.90
20560;DHT22;10438;51.454;6.718;2022-09-09T02:21:21;15.60;99.90
20560;DHT22;10438;51.454;6.718;2022-09-09T02:23:49;15.60;99.90
20560;DHT22;10438;51.454;6.718;2022-09-09T02:26:18;15.60;99.90
20560;DHT22;10438;51.454;6.718;2022-09-09T02:28:49;15.70;99.90
20560;DHT22;10438;51.454;6.718;2022-09-09T02:31:18;15.70;99.90
20560;DHT22;10438;51.454;6.718;2022-09-09T02:33:50;15.70;99.90
20560;DHT22;10438;51.454;6.718;2022-09-09T02:36:18;15.80;99.90
20560;DHT22;10438;51.454;6.718;2022-09-09T02:38:48;15.80;99.90
20560;DHT22;10438;51.454;6.718;2022-09-09T02:41:17;15.80;99.90
20560;DHT22;10438;51.454;6.718;2022-09-09T02:43:44;15.80;99.90
20560;DHT22;10438;51.454;6.718;2022-09-09T02:49:08;15.80;99.90
20560;DHT22;10438;51.454;6.718;2022-09-09T02:52:01;15.80;99.90
20560;DHT22;10438;51.454;6.718;2022-09-09T02:54:29;15.80;99.90
20560;DHT22;10438;51.454;6.718;2022-09-09T02:57:23;15.80;99.90
20560;DHT22;10438;51.454;6.718;2022-09-09T02:59:51;15.80;99.90
20560;DHT22;10438;51.454;6.718;2022-09-09T03:02:18;15.80;99.90
20560;DHT22;10438;51.454;6.718;2022-09-09T03:04:44;15.80;99.90
20560;DHT22;10438;51.454;6.718;2022-09-09T03:07:11;15.80;99.90
20560;DHT22;10438;51.454;6.718;2022-09-09T03:09:37;15.80;99.90
20560;DHT22;10438;51.454;6.718;2022-09-09T03:12:02;15.80;99.90
20560;DHT22;10438;51.454;6.718;2022-09-09T03:14:29;15.90;99.90
20560;DHT22;10438;51.454;6.718;2022-09-09T03:16:56;15.80;99.90
20560;DHT22;10438;51.454;6.718;2022-09-09T03:19:23;15.90;99.90
20560;DHT22;10438;51.454;6.718;2022-09-09T03:21:49;15.90;99.90
20560;DHT22;10438;51.454;6.718;2022-09-09T03:24:15;16.00;99.90
20560;DHT22;10438;51.454;6.718;2022-09-09T03:26:41;16.00;99.90
20560;DHT22;10438;51.454;6.718;2022-09-09T03:29:10;16.00;99.90
20560;DHT22;10438;51.454;6.718;2022-09-09T03:31:38;16.10;99.90
20560;DHT22;10438;51.454;6.718;2022-09-09T03:34:04;16.10;99.90
20560;DHT22;10438;51.454;6.718;2022-09-09T03:36:30;16.10;99.90
20560;DHT22;10438;51.454;6.718;2022-09-09T03:38:55;16.10;99.90
20560;DHT22;10438;51.454;6.718;2022-09-09T03:41:22;16.20;99.90
20560;DHT22;10438;51.454;6.718;2022-09-09T03:43:53;16.10;99.90
20560;DHT22;10438;51.454;6.718;2022-09-09T03:46:23;16.10;99.90
20560;DHT22;10438;51.454;6.718;2022-09-09T03:48:49;16.10;99.90
20560;DHT22;10438;51.454;6.718;2022-09-09T03:51:14;16.10;99.90
20560;DHT22;10438;51.454;6.718;2022-09-09T03:53:41;16.10;99.90
20560;DHT22;10438;51.454;6.718;2022-09-09T03:56:08;16.10;99.90
20560;DHT22;10438;51.454;6.718;2022-09-09T03:58:36;16.00;99.90
20560;DHT22;10438;51.454;6.718;2022-09-09T04:01:07;16.00;99.90
20560;DHT22;10438;51.454;6.718;2022-09-09T04:03:36;16.00;99.90
20560;DHT22;10438;51.454;6.718;2022-09-09T04:06:03;16.00;99.90
20560;DHT22;10438;51.454;6.718;2022-09-09T04:08:29;16.10;99.90
20560;DHT22;10438;51.454;6.718;2022-09-09T04:10:57;16.20;99.90
20560;DHT22;10438;51.454;6.718;2022-09-09T04:13:23;16.20;99.90
20560;DHT22;10438;51.454;6.718;2022-09-09T04:15:54;16.20;99.90
20560;DHT22;10438;51.454;6.718;2022-09-09T04:18:21;16.20;99.90
20560;DHT22;10438;51.454;6.718;2022-09-09T04:20:50;16.20;99.90
20560;DHT22;10438;51.454;6.718;2022-09-09T04:23:17;16.20;99.90
20560;DHT22;10438;51.454;6.718;2022-09-09T04:25:48;16.20;99.90
20560;DHT22;10438;51.454;6.718;2022-09-09T04:28:15;16.20;99.90
20560;DHT22;10438;51.454;6.718;2022-09-09T04:30:41;16.30;99.90
20560;DHT22;10438;51.454;6.718;2022-09-09T04:33:07;16.30;99.90
20560;DHT22;10438;51.454;6.718;2022-09-09T04:35:33;16.30;99.90
20560;DHT22;10438;51.454;6.718;2022-09-09T04:37:59;16.30;99.90
20560;DHT22;10438;51.454;6.718;2022-09-09T04:40:24;16.30;99.90
20560;DHT22;10438;51.454;6.718;2022-09-09T04:42:50;16.30;99.90
20560;DHT22;10438;51.454;6.718;2022-09-09T04:45:16;16.30;99.90
20560;DHT22;10438;51.454;6.718;2022-09-09T04:47:42;16.30;99.90
20560;DHT22;10438;51.454;6.718;2022-09-09T04:50:08;16.40;99.90
20560;DHT22;10438;51.454;6.718;2022-09-09T04:52:35;16.40;99.90
20560;DHT22;10438;51.454;6.718;2022-09-09T04:55:01;16.40;99.90
20560;DHT22;10438;51.454;6.718;2022-09-09T04:57:27;16.40;99.90
20560;DHT22;10438;51.454;6.718;2022-09-09T04:59:54;16.40;99.90
20560;DHT22;10438;51.454;6.718;2022-09-09T05:02:19;16.40;99.90
20560;DHT22;10438;51.454;6.718;2022-09-09T05:04:45;16.40;99.90
20560;DHT22;10438;51.454;6.718;2022-09-09T05:07:10;16.40;99.90
20560;DHT22;10438;51.454;6.718;2022-09-09T05:09:36;16.50;99.90
20560;DHT22;10438;51.454;6.718;2022-09-09T05:12:02;16.50;99.90
20560;DHT22;10438;51.454;6.718;2022-09-09T05:14:28;16.40;99.90
20560;DHT22;10438;51.454;6.718;2022-09-09T05:16:54;16.40;99.90
20560;DHT22;10438;51.454;6.718;2022-09-09T05:19:21;16.40;99.90
20560;DHT22;10438;51.454;6.718;2022-09-09T05:21:46;16.40;99.90
20560;DHT22;10438;51.454;6.718;2022-09-09T05:24:12;16.40;99.90
20560;DHT22;10438;51.454;6.718;2022-09-09T05:26:38;16.30;99.90
20560;DHT22;10438;51.454;6.718;2022-09-09T05:29:03;16.30;99.90
20560;DHT22;10438;51.454;6.718;2022-09-09T05:31:30;16.30;99.90
20560;DHT22;10438;51.454;6.718;2022-09-09T05:33:56;16.30;99.90
20560;DHT22;10438;51.454;6.718;2022-09-09T05:36:22;16.30;99.90
20560;DHT22;10438;51.454;6.718;2022-09-09T05:38:49;16.30;99.90
20560;DHT22;10438;51.454;6.718;2022-09-09T05:41:16;16.30;99.90
20560;DHT22;10438;51.454;6.718;2022-09-09T05:43:43;16.30;99.90
20560;DHT22;10438;51.454;6.718;2022-09-09T05:46:22;16.40;99.90
20560;DHT22;10438;51.454;6.718;2022-09-09T05:48:48;16.30;99.90
20560;DHT22;10438;51.454;6.718;2022-09-09T05:51:22;16.40;99.90
20560;DHT22;10438;51.454;6.718;2022-09-09T05:53:49;16.40;99.90
20560;DHT22;10438;51.454;6.718;2022-09-09T05:56:24;16.50;99.90
20560;DHT22;10438;51.454;6.718;2022-09-09T05:58:53;16.50;99.90
20560;DHT22;10438;51.454;6.718;2022-09-09T06:01:22;16.50;99.90
20560;DHT22;10438;51.454;6.718;2022-09-09T06:03:49;16.60;99.90
20560;DHT22;10438;51.454;6.718;2022-09-09T06:06:20;16.60;99.90
20560;DHT22;10438;51.454;6.718;2022-09-09T06:08:47;16.60;99.90
20560;DHT22;10438;51.454;6.718;2022-09-09T06:11:16;16.70;99.90
20560;DHT22;10438;51.454;6.718;2022-09-09T06:13:42;16.60;99.90
20560;DHT22;10438;51.454;6.718;2022-09-09T06:16:09;16.70;99.90
20560;DHT22;10438;51.454;6.718;2022-09-09T06:18:37;16.70;99.90
20560;DHT22;10438;51.454;6.718;2022-09-09T06:21:04;16.80;99.90
20560;DHT22;10438;51.454;6.718;2022-09-09T06:23:32;16.80;99.90
20560;DHT22;10438;51.454;6.718;2022-09-09T06:26:23;16.80;99.90
20560;DHT22;10438;51.454;6.718;2022-09-09T06:28:50;16.80;99.90
20560;DHT22;10438;51.454;6.718;2022-09-09T06:31:19;16.90;99.90
20560;DHT22;10438;51.454;6.718;2022-09-09T06:33:49;16.90;99.90
20560;DHT22;10438;51.454;6.718;2022-09-09T06:36:17;16.90;99.90
20560;DHT22;10438;51.454;6.718;2022-09-09T06:38:44;17.00;99.90
20560;DHT22;10438;51.454;6.718;2022-09-09T06:41:11;17.10;99.90
20560;DHT22;10438;51.454;6.718;2022-09-09T06:43:37;17.10;99.90
20560;DHT22;10438;51.454;6.718;2022-09-09T06:46:12;17.10;99.90
20560;DHT22;10438;51.454;6.718;2022-09-09T06:48:39;17.10;99.90
20560;DHT22;10438;51.454;6.718;2022-09-09T06:51:19;17.00;99.90
20560;DHT22;10438;51.454;6.718;2022-09-09T06:53:47;17.10;99.90
20560;DHT22;10438;51.454;6.718;2022-09-09T06:56:32;17.20;99.90
20560;DHT22;10438;51.454;6.718;2022-09-09T06:58:59;17.20;99.90
20560;DHT22;10438;51.454;6.718;2022-09-09T07:01:29;17.30;99.90
20560;DHT22;10438;51.454;6.718;2022-09-09T07:03:56;17.30;99.90
20560;DHT22;10438;51.454;6.718;2022-09-09T07:06:29;17.40;99.90
20560;DHT22;10438;51.454;6.718;2022-09-09T07:08:57;17.40;99.90
20560;DHT22;10438;51.454;6.718;2022-09-09T07:11:29;17.40;99.90
20560;DHT22;10438;51.454;6.718;2022-09-09T07:13:56;17.50;99.90
20560;DHT22;10438;51.454;6.718;2022-09-09T07:16:23;17.50;99.90
20560;DHT22;10438;51.454;6.718;2022-09-09T07:18:53;17.60;99.90
20560;DHT22;10438;51.454;6.718;2022-09-09T07:21:23;17.60;99.90
20560;DHT22;10438;51.454;6.718;2022-09-09T07:23:50;17.60;99.90
20560;DHT22;10438;51.454;6.718;2022-09-09T07:26:22;17.50;99.90
20560;DHT22;10438;51.454;6.718;2022-09-09T07:28:48;17.50;99.90
20560;DHT22;10438;51.454;6.718;2022-09-09T07:31:25;17.50;99.90
20560;DHT22;10438;51.454;6.718;2022-09-09T07:33:52;17.50;99.90
20560;DHT22;10438;51.454;6.718;2022-09-09T07:36:26;17.60;99.90
20560;DHT22;10438;51.454;6.718;2022-09-09T07:38:57;17.70;99.90
20560;DHT22;10438;51.454;6.718;2022-09-09T07:41:26;17.80;99.90
20560;DHT22;10438;51.454;6.718;2022-09-09T07:43:52;17.90;99.90
20560;DHT22;10438;51.454;6.718;2022-09-09T07:46:23;18.00;99.90
20560;DHT22;10438;51.454;6.718;2022-09-09T07:48:51;18.10;99.90
20560;DHT22;10438;51.454;6.718;2022-09-09T07:51:20;18.10;99.90
20560;DHT22;10438;51.454;6.718;2022-09-09T07:53:48;18.10;99.90
20560;DHT22;10438;51.454;6.718;2022-09-09T07:56:17;18.10;99.90
20560;DHT22;10438;51.454;6.718;2022-09-09T07:58:46;18.30;99.90
20560;DHT22;10438;51.454;6.718;2022-09-09T08:01:18;18.50;99.90
20560;DHT22;10438;51.454;6.718;2022-09-09T08:03:45;18.70;99.90
20560;DHT22;10438;51.454;6.718;2022-09-09T08:06:12;18.80;99.90
20560;DHT22;10438;51.454;6.718;2022-09-09T08:08:38;18.80;99.90
20560;DHT22;10438;51.454;6.718;2022-09-09T08:11:09;18.90;99.90
20560;DHT22;10438;51.454;6.718;2022-09-09T08:13:36;18.90;99.90
20560;DHT22;10438;51.454;6.718;2022-09-09T08:16:07;19.00;99.90
20560;DHT22;10438;51.454;6.718;2022-09-09T08:18:33;19.10;99.90
20560;DHT22;10438;51.454;6.718;2022-09-09T08:21:08;19.20;99.90
20560;DHT22;10438;51.454;6.718;2022-09-09T08:23:34;19.10;99.90
20560;DHT22;10438;51.454;6.718;2022-09-09T08:26:37;18.80;99.90
20560;DHT22;10438;51.454;6.718;2022-09-09T08:29:05;18.70;99.90
20560;DHT22;10438;51.454;6.718;2022-09-09T08:31:34;18.70;99.90
20560;DHT22;10438;51.454;6.718;2022-09-09T08:34:01;18.80;99.90
20560;DHT22;10438;51.454;6.718;2022-09-09T08:36:30;19.10;99.90
20560;DHT22;10438;51.454;6.718;2022-09-09T08:38:57;19.40;99.90
20560;DHT22;10438;51.454;6.718;2022-09-09T08:49:48;19.60;99.90
20560;DHT22;10438;51.454;6.718;2022-09-09T08:52:27;19.70;99.90
20560;DHT22;10438;51.454;6.718;2022-09-09T08:55:03;19.60;99.90
20560;DHT22;10438;51.454;6.718;2022-09-09T08:57:31;19.50;99.90
20560;DHT22;10438;51.454;6.718;2022-09-09T08:59:57;19.30;99.90
20560;DHT22;10438;51.454;6.718;2022-09-09T09:03:03;19.10;99.90
20560;DHT22;10438;51.454;6.718;2022-09-09T09:05:37;18.90;99.90
20560;DHT22;10438;51.454;6.718;2022-09-09T09:10:51;18.90;99.90
20560;DHT22;10438;51.454;6.718;2022-09-09T09:13:50;18.90;99.90
20560;DHT22;10438;51.454;6.718;2022-09-09T09:16:33;18.90;99.90
20560;DHT22;10438;51.454;6.718;2022-09-09T09:19:00;18.90;99.90
20560;DHT22;10438;51.454;6.718;2022-09-09T09:21:42;18.90;99.90
20560;DHT22;10438;51.454;6.718;2022-09-09T09:24:19;18.90;99.90
20560;DHT22;10438;51.454;6.718;2022-09-09T09:26:45;18.90;99.90
20560;DHT22;10438;51.454;6.718;2022-09-09T09:29:14;18.90;99.90
20560;DHT22;10438;51.454;6.718;2022-09-09T09:31:52;18.90;99.90
20560;DHT22;10438;51.454;6.718;2022-09-09T09:34:21;18.90;99.90
20560;DHT22;10438;51.454;6.718;2022-09-09T09:36:54;18.80;99.90
20560;DHT22;10438;51.454;6.718;2022-09-09T09:41:51;18.80;99.90
20560;DHT22;10438;51.454;6.718;2022-09-09T09:44:32;18.80;99.90
20560;DHT22;10438;51.454;6.718;2022-09-09T09:47:14;18.80;99.90
20560;DHT22;10438;51.454;6.718;2022-09-09T09:49:59;18.90;99.90
20560;DHT22;10438;51.454;6.718;2022-09-09T09:52:30;19.00;99.90
20560;DHT22;10438;51.454;6.718;2022-09-09T09:54:58;19.20;99.90
20560;DHT22;10438;51.454;6.718;2022-09-09T09:57:27;19.50;99.90
20560;DHT22;10438;51.454;6.718;2022-09-09T10:00:33;19.90;99.90
20560;DHT22;10438;51.454;6.718;2022-09-09T10:03:00;20.30;99.90
20560;DHT22;10438;51.454;6.718;2022-09-09T10:05:28;20.50;99.90
20560;DHT22;10438;51.454;6.718;2022-09-09T10:08:03;20.80;99.90
20560;DHT22;10438;51.454;6.718;2022-09-09T10:19:03;19.80;99.90
20560;DHT22;10438;51.454;6.718;2022-09-09T10:29:50;19.60;99.90
20560;DHT22;10438;51.454;6.718;2022-09-09T10:32:41;19.50;99.90
20560;DHT22;10438;51.454;6.718;2022-09-09T10:35:46;19.40;99.90
20560;DHT22;10438;51.454;6.718;2022-09-09T10:38:42;19.40;99.90
20560;DHT22;10438;51.454;6.718;2022-09-09T10:44:30;19.30;99.90
20560;DHT22;10438;51.454;6.718;2022-09-09T10:47:57;19.30;99.90
20560;DHT22;10438;51.454;6.718;2022-09-09T10:53:02;19.30;99.90
20560;DHT22;10438;51.454;6.718;2022-09-09T10:55:52;19.30;99.90
20560;DHT22;10438;51.454;6.718;2022-09-09T10:58:44;19.40;99.90
20560;DHT22;10438;51.454;6.718;2022-09-09T11:01:24;19.50;99.90
20560;DHT22;10438;51.454;6.718;2022-09-09T11:04:17;19.70;99.90
20560;DHT22;10438;51.454;6.718;2022-09-09T11:06:49;19.90;99.90
20560;DHT22;10438;51.454;6.718;2022-09-09T11:09:21;19.90;99.90
20560;DHT22;10438;51.454;6.718;2022-09-09T11:11:56;19.90;99.90
20560;DHT22;10438;51.454;6.718;2022-09-09T11:14:39;19.80;99.90
20560;DHT22;10438;51.454;6.718;2022-09-09T11:19:42;19.70;99.90
20560;DHT22;10438;51.454;6.718;2022-09-09T11:22:32;19.70;99.90
20560;DHT22;10438;51.454;6.718;2022-09-09T11:25:15;19.70;99.90
20560;DHT22;10438;51.454;6.718;2022-09-09T11:27:44;19.80;99.90
20560;DHT22;10438;51.454;6.718;2022-09-09T11:30:22;19.90;99.90
20560;DHT22;10438;51.454;6.718;2022-09-09T11:32:57;20.10;99.90
20560;DHT22;10438;51.454;6.718;2022-09-09T11:40:59;20.10;99.90
20560;DHT22;10438;51.454;6.718;2022-09-09T11:43:52;19.90;99.90
20560;DHT22;10438;51.454;6.718;2022-09-09T11:46:20;20.00;99.90
20560;DHT22;10438;51.454;6.718;2022-09-09T11:49:06;20.10;99.90
20560;DHT22;10438;51.454;6.718;2022-09-09T11:51:48;20.00;99.90
20560;DHT22;10438;51.454;6.718;2022-09-09T11:54:32;19.90;99.90
20560;DHT22;10438;51.454;6.718;2022-09-09T11:57:02;19.80;99.90
20560;DHT22;10438;51.454;6.718;2022-09-09T11:59:31;19.80;99.90
20560;DHT22;10438;51.454;6.718;2022-09-09T12:01:57;20.00;99.90
20560;DHT22;10438;51.454;6.718;2022-09-09T12:06:56;20.00;99.90
20560;DHT22;10438;51.454;6.718;2022-09-09T12:12:31;19.90;99.90
20560;DHT22;10438;51.454;6.718;2022-09-09T12:17:47;20.00;99.90
20560;DHT22;10438;51.454;6.718;2022-09-09T12:20:19;19.90;99.90
20560;DHT22;10438;51.454;6.718;2022-09-09T12:25:36;20.10;99.90
20560;DHT22;10438;51.454;6.718;2022-09-09T12:31:00;20.10;99.90
20560;DHT22;10438;51.454;6.718;2022-09-09T12:33:35;19.80;99.90
20560;DHT22;10438;51.454;6.718;2022-09-09T12:36:01;19.00;99.90
20560;DHT22;10438;51.454;6.718;2022-09-09T12:38:36;18.70;99.90
20560;DHT22;10438;51.454;6.718;2022-09-09T12:41:02;18.60;99.90
20560;DHT22;10438;51.454;6.718;2022-09-09T12:43:28;18.40;99.90
20560;DHT22;10438;51.454;6.718;2022-09-09T12:45:58;18.40;99.90
20560;DHT22;10438;51.454;6.718;2022-09-09T12:48:35;18.30;99.90
20560;DHT22;10438;51.454;6.718;2022-09-09T12:51:02;18.30;99.90
20560;DHT22;10438;51.454;6.718;2022-09-09T12:53:36;18.30;99.90
20560;DHT22;10438;51.454;6.718;2022-09-09T12:56:05;18.30;99.90
20560;DHT22;10438;51.454;6.718;2022-09-09T12:58:33;18.30;99.90
20560;DHT22;10438;51.454;6.718;2022-09-09T13:01:01;18.40;99.90
20560;DHT22;10438;51.454;6.718;2022-09-09T13:03:31;18.30;99.90
20560;DHT22;10438;51.454;6.718;2022-09-09T13:06:11;18.30;99.90
20560;DHT22;10438;51.454;6.718;2022-09-09T13:08:38;18.20;99.90
20560;DHT22;10438;51.454;6.718;2022-09-09T13:11:08;18.50;99.90
20560;DHT22;10438;51.454;6.718;2022-09-09T13:13:40;18.70;99.90
20560;DHT22;10438;51.454;6.718;2022-09-09T13:16:20;18.80;99.90
20560;DHT22;10438;51.454;6.718;2022-09-09T13:18:46;18.80;99.90
20560;DHT22;10438;51.454;6.718;2022-09-09T13:21:12;18.80;99.90
20560;DHT22;10438;51.454;6.718;2022-09-09T13:23:38;18.80;99.90
20560;DHT22;10438;51.454;6.718;2022-09-09T13:26:26;19.00;99.90
20560;DHT22;10438;51.454;6.718;2022-09-09T13:28:53;19.40;99.90
20560;DHT22;10438;51.454;6.718;2022-09-09T13:31:30;19.80;99.90
20560;DHT22;10438;51.454;6.718;2022-09-09T13:33:56;20.00;99.90
20560;DHT22;10438;51.454;6.718;2022-09-09T13:36:34;20.40;99.90
20560;DHT22;10438;51.454;6.718;2022-09-09T13:39:02;20.10;99.90
20560;DHT22;10438;51.454;6.718;2022-09-09T13:41:43;19.90;99.90
20560;DHT22;10438;51.454;6.718;2022-09-09T13:44:27;19.70;99.90
20560;DHT22;10438;51.454;6.718;2022-09-09T13:47:06;20.00;99.90
20560;DHT22;10438;51.454;6.718;2022-09-09T13:49:32;20.50;99.90
20560;DHT22;10438;51.454;6.718;2022-09-09T13:52:25;20.80;99.90
20560;DHT22;10438;51.454;6.718;2022-09-09T13:54:52;21.00;99.90
20560;DHT22;10438;51.454;6.718;2022-09-09T13:57:21;20.90;99.90
20560;DHT22;10438;51.454;6.718;2022-09-09T13:59:48;20.80;99.90
20560;DHT22;10438;51.454;6.718;2022-09-09T14:02:16;20.80;99.90
20560;DHT22;10438;51.454;6.718;2022-09-09T14:04:43;20.80;99.90
20560;DHT22;10438;51.454;6.718;2022-09-09T14:07:12;20.50;99.90
20560;DHT22;10438;51.454;6.718;2022-09-09T14:09:38;20.30;99.90
20560;DHT22;10438;51.454;6.718;2022-09-09T14:12:04;20.20;99.90
20560;DHT22;10438;51.454;6.718;2022-09-09T14:14:30;20.10;99.90
20560;DHT22;10438;51.454;6.718;2022-09-09T14:16:56;19.90;99.90
20560;DHT22;10438;51.454;6.718;2022-09-09T14:19:21;19.80;99.90
20560;DHT22;10438;51.454;6.718;2022-09-09T14:21:47;19.80;99.90
20560;DHT22;10438;51.454;6.718;2022-09-09T14:24:12;19.90;99.90
20560;DHT22;10438;51.454;6.718;2022-09-09T14:26:38;20.00;99.90
20560;DHT22;10438;51.454;6.718;2022-09-09T14:29:03;19.90;99.90
20560;DHT22;10438;51.454;6.718;2022-09-09T14:31:29;19.70;99.90
20560;DHT22;10438;51.454;6.718;2022-09-09T14:33:54;19.60;99.90
20560;DHT22;10438;51.454;6.718;2022-09-09T14:36:20;19.40;99.90
20560;DHT22;10438;51.454;6.718;2022-09-09T14:38:46;19.20;99.90
20560;DHT22;10438;51.454;6.718;2022-09-09T14:41:14;18.80;99.90
20560;DHT22;10438;51.454;6.718;2022-09-09T14:43:45;18.30;99.90
20560;DHT22;10438;51.454;6.718;2022-09-09T14:46:13;17.60;99.90
20560;DHT22;10438;51.454;6.718;2022-09-09T14:48:39;17.20;99.90
20560;DHT22;10438;51.454;6.718;2022-09-09T14:53:35;16.50;99.90
20560;DHT22;10438;51.454;6.718;2022-09-09T14:56:12;16.40;99.90
20560;DHT22;10438;51.454;6.718;2022-09-09T14:58:38;16.20;99.90
20560;DHT22;10438;51.454;6.718;2022-09-09T15:01:09;16.20;99.90
20560;DHT22;10438;51.454;6.718;2022-09-09T15:03:42;16.10;99.90
20560;DHT22;10438;51.454;6.718;2022-09-09T15:06:13;16.10;99.90
20560;DHT22;10438;51.454;6.718;2022-09-09T15:08:41;16.10;99.90
20560;DHT22;10438;51.454;6.718;2022-09-09T15:11:08;16.10;99.90
20560;DHT22;10438;51.454;6.718;2022-09-09T15:13:34;16.10;99.90
20560;DHT22;10438;51.454;6.718;2022-09-09T15:16:07;16.10;99.90
20560;DHT22;10438;51.454;6.718;2022-09-09T15:18:33;16.00;99.90
20560;DHT22;10438;51.454;6.718;2022-09-09T15:21:02;16.00;99.90
20560;DHT22;10438;51.454;6.718;2022-09-09T15:23:28;16.00;99.90
20560;DHT22;10438;51.454;6.718;2022-09-09T15:25:56;16.10;99.90
20560;DHT22;10438;51.454;6.718;2022-09-09T15:28:22;16.20;99.90
20560;DHT22;10438;51.454;6.718;2022-09-09T15:30:49;16.50;99.90
20560;DHT22;10438;51.454;6.718;2022-09-09T15:33:14;16.80;99.90
20560;DHT22;10438;51.454;6.718;2022-09-09T15:35:40;17.10;99.90
20560;DHT22;10438;51.454;6.718;2022-09-09T15:38:06;17.40;99.90
20560;DHT22;10438;51.454;6.718;2022-09-09T15:40:31;17.60;99.90
20560;DHT22;10438;51.454;6.718;2022-09-09T15:43:00;17.80;99.90
20560;DHT22;10438;51.454;6.718;2022-09-09T15:45:25;17.90;99.90
20560;DHT22;10438;51.454;6.718;2022-09-09T15:47:52;18.00;99.90
20560;DHT22;10438;51.454;6.718;2022-09-09T15:50:18;18.10;99.90
20560;DHT22;10438;51.454;6.718;2022-09-09T15:52:43;18.10;99.90
20560;DHT22;10438;51.454;6.718;2022-09-09T15:55:10;18.00;99.90
20560;DHT22;10438;51.454;6.718;2022-09-09T15:57:35;18.10;99.90
20560;DHT22;10438;51.454;6.718;2022-09-09T16:00:03;18.10;99.90
20560;DHT22;10438;51.454;6.718;2022-09-09T16:02:29;18.10;99.90
20560;DHT22;10438;51.454;6.718;2022-09-09T16:04:56;18.10;99.90
20560;DHT22;10438;51.454;6.718;2022-09-09T16:07:22;18.10;99.90
20560;DHT22;10438;51.454;6.718;2022-09-09T16:09:48;18.00;99.90
20560;DHT22;10438;51.454;6.718;2022-09-09T16:12:16;18.00;99.90
20560;DHT22;10438;51.454;6.718;2022-09-09T16:14:42;17.90;99.90
20560;DHT22;10438;51.454;6.718;2022-09-09T16:17:08;17.80;99.90
20560;DHT22;10438;51.454;6.718;2022-09-09T16:19:34;17.70;99.90
20560;DHT22;10438;51.454;6.718;2022-09-09T16:22:01;17.70;99.90
20560;DHT22;10438;51.454;6.718;2022-09-09T16:24:26;17.70;99.90
20560;DHT22;10438;51.454;6.718;2022-09-09T16:26:53;17.60;99.90
20560;DHT22;10438;51.454;6.718;2022-09-09T16:29:20;17.50;99.90
20560;DHT22;10438;51.454;6.718;2022-09-09T16:31:48;17.40;99.90
20560;DHT22;10438;51.454;6.718;2022-09-09T16:34:15;17.40;99.90
20560;DHT22;10438;51.454;6.718;2022-09-09T16:36:42;17.40;99.90
20560;DHT22;10438;51.454;6.718;2022-09-09T16:39:10;17.40;99.90
20560;DHT22;10438;51.454;6.718;2022-09-09T16:41:37;17.40;99.90
20560;DHT22;10438;51.454;6.718;2022-09-09T16:44:06;17.40;99.90
20560;DHT22;10438;51.454;6.718;2022-09-09T16:46:35;17.40;99.90
20560;DHT22;10438;51.454;6.718;2022-09-09T16:49:03;17.40;99.90
20560;DHT22;10438;51.454;6.718;2022-09-09T16:51:31;17.50;99.90
20560;DHT22;10438;51.454;6.718;2022-09-09T16:54:01;17.50;99.90
20560;DHT22;10438;51.454;6.718;2022-09-09T16:56:30;17.60;99.90
20560;DHT22;10438;51.454;6.718;2022-09-09T16:59:00;17.60;99.90
20560;DHT22;10438;51.454;6.718;2022-09-09T17:01:29;17.60;99.90
20560;DHT22;10438;51.454;6.718;2022-09-09T17:03:56;17.60;99.90
20560;DHT22;10438;51.454;6.718;2022-09-09T17:06:22;17.60;99.90
20560;DHT22;10438;51.454;6.718;2022-09-09T17:08:54;17.60;99.90
20560;DHT22;10438;51.454;6.718;2022-09-09T17:11:19;17.60;99.90
20560;DHT22;10438;51.454;6.718;2022-09-09T17:13:46;17.60;99.90
20560;DHT22;10438;51.454;6.718;2022-09-09T17:16:14;17.60;99.90
20560;DHT22;10438;51.454;6.718;2022-09-09T17:18:40;17.60;99.90
20560;DHT22;10438;51.454;6.718;2022-09-09T17:21:08;17.60;99.90
20560;DHT22;10438;51.454;6.718;2022-09-09T17:23:35;17.60;99.90
20560;DHT22;10438;51.454;6.718;2022-09-09T17:26:04;17.60;99.90
20560;DHT22;10438;51.454;6.718;2022-09-09T17:28:31;17.60;99.90